Time;durP1;ratioP1;P1;durP2;ratioP2;P2;SDS_P1;SDS_P2;PMS_P1;PMS_P2;Temp;Humidity;BMP_temperature;BMP_pressure;BME280_temperature;BME280_humidity;BME280_pressure;Samples;Min_cycle;Max_cycle;Signal;HPM_P1;HPM_P2
2023/11/03 17:29:52;;;;;;;2.42;1.90;;;;;;;;;;6265679;22;20020;-87
2023/11/03 17:32:20;;;;;;;3.60;2.88;;;;;;;;;;6277862;22;20008;-89
2023/11/03 17:34:46;;;;;;;2.58;2.20;;;;;;;;;;6278148;22;20007;-88
2023/11/03 17:37:11;;;;;;;2.63;2.42;;;;;;;;;;6251292;22;20000;-90
2023/11/03 17:39:38;;;;;;;2.47;2.28;;;;;;;;;;6251034;22;20014;-90
2023/11/03 17:42:04;;;;;;;3.47;3.10;;;;;;;;;;6251934;22;20004;-88
2023/11/03 17:44:31;;;;;;;8.60;7.68;;;;;;;;;;6278660;22;20034;-90
2023/11/03 17:46:56;;;;;;;7.03;5.97;;;;;;;;;;6251770;22;20307;-89
2023/11/03 17:49:23;;;;;;;5.35;4.45;;;;;;;;;;6278176;22;20073;-89
2023/11/03 17:51:48;;;;;;;4.97;3.70;;;;;;;;;;6251634;22;20003;-89
2023/11/03 17:54:14;;;;;;;5.65;4.97;;;;;;;;;;6277789;22;19999;-89
2023/11/03 17:56:40;;;;;;;5.70;5.10;;;;;;;;;;6277659;22;20000;-89
2023/11/03 17:59:06;;;;;;;5.47;4.97;;;;;;;;;;6250184;22;20012;-89
2023/11/03 18:01:31;;;;;;;7.57;6.88;;;;;;;;;;6277425;22;20027;-90
2023/11/03 18:03:58;;;;;;;4.30;3.90;;;;;;;;;;6250626;22;20331;-89
2023/11/03 18:06:23;;;;;;;2.95;2.67;;;;;;;;;;6250220;22;20007;-88
2023/11/03 18:08:49;;;;;;;2.78;2.58;;;;;;;;;;6277790;22;20061;-90
2023/11/03 18:11:16;;;;;;;3.10;2.78;;;;;;;;;;6250532;22;20090;-89
2023/11/03 18:13:42;;;;;;;5.18;4.50;;;;;;;;;;6250456;22;20011;-88
2023/11/03 18:16:09;;;;;;;9.25;7.90;;;;;;;;;;6277242;22;20000;-88
2023/11/03 18:18:35;;;;;;;4.78;4.25;;;;;;;;;;6249964;22;20007;-88
2023/11/03 18:21:00;;;;;;;5.65;5.13;;;;;;;;;;6250042;22;20031;-89
2023/11/03 18:23:26;;;;;;;4.05;3.58;;;;;;;;;;6277352;22;20045;-89
2023/11/03 18:25:53;;;;;;;2.85;2.28;;;;;;;;;;6250357;22;20049;-87
2023/11/03 18:28:18;;;;;;;3.42;3.08;;;;;;;;;;6250045;22;20055;-88
2023/11/03 18:30:44;;;;;;;2.28;2.03;;;;;;;;;;6277009;22;20010;-89
2023/11/03 18:33:09;;;;;;;3.05;1.50;;;;;;;;;;6277604;22;19999;-89
2023/11/03 18:35:35;;;;;;;2.05;1.95;;;;;;;;;;6277589;22;20004;-88
2023/11/03 18:38:00;;;;;;;1.50;1.40;;;;;;;;;;6250116;22;20323;-88
2023/11/03 18:40:28;;;;;;;1.40;1.30;;;;;;;;;;6250980;22;20006;-88
2023/11/03 18:42:54;;;;;;;1.67;1.58;;;;;;;;;;6250770;22;20015;-89
2023/11/03 18:45:19;;;;;;;1.60;1.50;;;;;;;;;;6250148;22;20380;-90
2023/11/03 18:47:45;;;;;;;1.80;1.40;;;;;;;;;;6250115;22;20430;-89
2023/11/03 18:50:11;;;;;;;2.65;1.88;;;;;;;;;;6249922;22;20095;-88
2023/11/03 18:52:36;;;;;;;3.65;2.97;;;;;;;;;;6277329;22;20004;-91
2023/11/03 18:55:03;;;;;;;5.18;2.15;;;;;;;;;;6250644;22;19999;-90
2023/11/03 18:57:29;;;;;;;4.25;3.03;;;;;;;;;;6252253;22;20007;-90
2023/11/03 18:59:54;;;;;;;3.42;2.80;;;;;;;;;;6251071;22;20010;-89
2023/11/03 19:02:20;;;;;;;3.63;3.20;;;;;;;;;;6251340;22;20003;-91
2023/11/03 19:04:46;;;;;;;5.55;3.55;;;;;;;;;;6250930;22;20046;-89
2023/11/03 19:07:13;;;;;;;2.83;2.47;;;;;;;;;;6250939;22;20004;-86
2023/11/03 19:09:40;;;;;;;1.95;1.83;;;;;;;;;;6251763;22;20007;-89
2023/11/03 19:12:07;;;;;;;2.55;2.35;;;;;;;;;;6251427;22;19999;-90
2023/11/03 19:14:34;;;;;;;6.65;3.92;;;;;;;;;;6250349;22;20000;-88
2023/11/03 19:16:59;;;;;;;4.80;3.75;;;;;;;;;;6250865;22;20003;-88
2023/11/03 19:19:25;;;;;;;12.40;9.05;;;;;;;;;;6250707;22;20418;-92
2023/11/03 19:21:53;;;;;;;10.23;6.22;;;;;;;;;;6277849;22;20007;-89
2023/11/03 19:24:19;;;;;;;18.20;14.25;;;;;;;;;;6250882;22;20010;-89
2023/11/03 19:26:47;;;;;;;11.10;8.80;;;;;;;;;;6250773;22;20030;-88
2023/11/03 19:29:14;;;;;;;14.43;10.15;;;;;;;;;;6250842;22;20015;-91
2023/11/03 19:31:40;;;;;;;8.10;6.85;;;;;;;;;;6279269;22;20000;-90
2023/11/03 19:34:06;;;;;;;3.53;2.80;;;;;;;;;;6252888;22;20000;-91
2023/11/03 19:36:33;;;;;;;2.30;2.10;;;;;;;;;;6251768;22;20014;-92
2023/11/03 19:38:59;;;;;;;3.95;3.55;;;;;;;;;;6279817;22;20004;-90
2023/11/03 19:41:25;;;;;;;3.40;2.88;;;;;;;;;;6252709;22;20010;-89
2023/11/03 19:43:51;;;;;;;4.13;2.38;;;;;;;;;;6279990;22;20083;-91
2023/11/03 19:46:17;;;;;;;4.03;3.63;;;;;;;;;;6280756;22;20378;-88
2023/11/03 19:48:43;;;;;;;4.25;3.80;;;;;;;;;;6253115;22;20102;-89
2023/11/03 19:51:08;;;;;;;3.33;3.00;;;;;;;;;;6280360;22;20003;-91
2023/11/03 19:53:34;;;;;;;2.63;2.42;;;;;;;;;;6280056;22;20000;-86
2023/11/03 19:55:59;;;;;;;4.28;3.50;;;;;;;;;;6252327;22;20485;-87
2023/11/03 19:58:25;;;;;;;3.15;2.83;;;;;;;;;;6226790;22;20012;-86
2023/11/03 20:00:52;;;;;;;2.05;1.88;;;;;;;;;;6278792;22;20000;-86
2023/11/03 20:03:18;;;;;;;2.50;2.30;;;;;;;;;;6251836;22;20423;-88
2023/11/03 20:05:44;;;;;;;2.40;2.20;;;;;;;;;;6251625;22;20010;-87
2023/11/03 20:08:11;;;;;;;36.50;18.60;;;;;;;;;;6251564;22;20014;-88
2023/11/03 20:10:36;;;;;;;36.42;19.45;;;;;;;;;;6251495;22;20002;-89
2023/11/03 20:13:05;;;;;;;40.80;20.02;;;;;;;;;;6252433;22;20363;-89
2023/11/03 20:15:31;;;;;;;33.42;16.05;;;;;;;;;;6253297;22;20082;-88
2023/11/03 20:17:57;;;;;;;11.98;7.45;;;;;;;;;;6258788;22;20004;-90
2023/11/03 20:20:23;;;;;;;4.47;3.80;;;;;;;;;;6256860;22;20055;-89
2023/11/03 20:22:54;;;;;;;3.45;2.65;;;;;;;;;;6253088;22;20003;-90
2023/11/03 20:25:20;;;;;;;3.08;2.28;;;;;;;;;;6252662;22;20008;-89
2023/11/03 20:27:46;;;;;;;2.47;1.80;;;;;;;;;;6252501;22;20004;-90
2023/11/03 20:30:13;;;;;;;1.67;1.52;;;;;;;;;;6252027;22;20023;-89
2023/11/03 20:32:38;;;;;;;2.90;1.75;;;;;;;;;;6253146;22;20334;-91
2023/11/03 20:35:07;;;;;;;3.83;2.60;;;;;;;;;;6253256;22;20086;-91
2023/11/03 20:37:36;;;;;;;1.90;1.80;;;;;;;;;;6252993;22;20061;-89
2023/11/03 20:40:08;;;;;;;2.10;1.80;;;;;;;;;;6256516;22;20008;-91
2023/11/03 20:42:38;;;;;;;2.05;1.83;;;;;;;;;;6255366;22;20014;-89
2023/11/03 20:45:04;;;;;;;;;;;;;;;;;;6250401;22;20003;-86
2023/11/03 20:47:29;;;;;;;3.95;3.65;;;;;;;;;;6252280;22;19986;-89
2023/11/03 20:49:59;;;;;;;7.82;7.13;;;;;;;;;;6279117;22;20003;-89
2023/11/03 20:52:28;;;;;;;12.60;11.68;;;;;;;;;;6251636;22;20008;-89
2023/11/03 20:54:54;;;;;;;16.58;15.27;;;;;;;;;;6250763;22;20014;-89
2023/11/03 20:57:20;;;;;;;7.03;6.45;;;;;;;;;;6249570;22;20007;-88
2023/11/03 20:59:48;;;;;;;4.25;3.95;;;;;;;;;;6278107;22;20039;-85
2023/11/03 21:02:13;;;;;;;2.47;2.10;;;;;;;;;;6277953;22;20007;-85
2023/11/03 21:05:00;;;;;;;2.35;2.15;;;;;;;;;;6278289;22;20019;-86
2023/11/03 21:07:25;;;;;;;2.28;2.00;;;;;;;;;;6251182;22;20000;-88
2023/11/03 21:09:52;;;;;;;2.35;2.13;;;;;;;;;;6278607;22;20069;-86
2023/11/03 21:12:17;;;;;;;3.20;2.97;;;;;;;;;;6278152;22;20006;-86
2023/11/03 21:14:46;;;;;;;3.67;3.38;;;;;;;;;;6278920;22;20004;-87
2023/11/03 21:17:14;;;;;;;3.33;2.22;;;;;;;;;;6252425;22;20049;-89
2023/11/03 21:19:41;;;;;;;1.70;1.60;;;;;;;;;;6250998;22;20004;-88
2023/11/03 21:22:07;;;;;;;1.45;1.30;;;;;;;;;;6277963;22;20070;-88
2023/11/03 21:24:34;;;;;;;2.10;1.90;;;;;;;;;;6251621;22;20431;-88
2023/11/03 21:27:01;;;;;;;1.60;1.50;;;;;;;;;;6251203;22;20007;-88
2023/11/03 21:29:33;;;;;;;2.05;1.77;;;;;;;;;;6251749;22;20030;-88
2023/11/03 21:32:02;;;;;;;1.80;1.70;;;;;;;;;;6251527;22;20014;-88
2023/11/03 21:34:32;;;;;;;1.50;1.40;;;;;;;;;;6252692;22;20063;-88
2023/11/03 21:36:57;;;;;;;;;;;;;;;;;;6254462;22;20004;-88
2023/11/03 21:39:31;;;;;;;1.35;1.30;;;;;;;;;;6251453;22;19938;-89
2023/11/03 21:41:57;;;;;;;1.42;1.30;;;;;;;;;;6278671;22;20071;-90
2023/11/03 21:44:24;;;;;;;1.45;1.35;;;;;;;;;;6251516;22;20430;-89
2023/11/03 21:46:49;;;;;;;1.30;1.20;;;;;;;;;;6251781;22;20415;-88
2023/11/03 21:49:18;;;;;;;1.40;1.30;;;;;;;;;;6250780;22;19999;-89
2023/11/03 21:52:04;;;;;;;1.77;1.35;;;;;;;;;;6251487;22;20008;-90
2023/11/03 21:54:29;;;;;;;1.45;1.35;;;;;;;;;;6250004;22;20087;-88
2023/11/03 21:56:58;;;;;;;1.52;1.42;;;;;;;;;;6250913;22;20330;-92
2023/11/03 21:59:27;;;;;;;1.88;1.58;;;;;;;;;;6251989;22;20007;-90
2023/11/03 22:01:53;;;;;;;1.52;1.42;;;;;;;;;;6251277;22;20007;-88
2023/11/03 22:04:20;;;;;;;1.95;1.30;;;;;;;;;;6251889;22;20102;-89
2023/11/03 22:06:47;;;;;;;1.50;1.40;;;;;;;;;;6251242;22;20362;-90
2023/11/03 22:09:13;;;;;;;2.58;1.15;;;;;;;;;;6251269;22;20083;-89
2023/11/03 22:11:39;;;;;;;1.20;1.10;;;;;;;;;;6250207;22;20442;-88
2023/11/03 22:14:05;;;;;;;1.50;1.17;;;;;;;;;;6250335;22;20075;-89
2023/11/03 22:16:30;;;;;;;1.80;1.48;;;;;;;;;;6277501;22;20000;-88
2023/11/03 22:18:56;;;;;;;1.55;1.45;;;;;;;;;;6250541;22;20010;-88
2023/11/03 22:21:22;;;;;;;1.25;1.23;;;;;;;;;;6250478;22;20010;-89
2023/11/03 22:23:48;;;;;;;1.40;1.30;;;;;;;;;;6250387;22;20006;-89
2023/11/03 22:26:17;;;;;;;1.30;1.20;;;;;;;;;;6250703;22;20007;-89
2023/11/03 22:28:47;;;;;;;1.40;1.30;;;;;;;;;;6251354;22;20019;-89
2023/11/03 22:31:12;;;;;;;;;;;;;;;;;;6251004;22;20057;-89
2023/11/03 22:33:38;;;;;;;1.95;1.27;;;;;;;;;;6250733;22;20273;-89
2023/11/03 22:36:05;;;;;;;1.50;1.40;;;;;;;;;;6250863;22;20549;-89
2023/11/03 22:38:31;;;;;;;1.27;1.17;;;;;;;;;;6250719;22;19999;-89
2023/11/03 22:40:57;;;;;;;1.25;1.17;;;;;;;;;;6250902;22;20010;-89
2023/11/03 22:43:23;;;;;;;1.20;1.10;;;;;;;;;;6250853;22;20034;-88
2023/11/03 22:45:49;;;;;;;1.60;1.20;;;;;;;;;;6277635;22;19996;-90
2023/11/03 22:48:15;;;;;;;1.80;1.58;;;;;;;;;;6250428;22;20026;-90
2023/11/03 22:50:41;;;;;;;1.50;1.40;;;;;;;;;;6277522;22;20311;-91
2023/11/03 22:53:07;;;;;;;2.85;1.40;;;;;;;;;;6250393;22;20008;-89
2023/11/03 22:55:32;;;;;;;23.83;9.50;;;;;;;;;;6277528;22;20010;-89
2023/11/03 22:57:57;;;;;;;107.03;48.20;;;;;;;;;;6250315;22;20003;-89
2023/11/03 23:00:25;;;;;;;53.58;28.25;;;;;;;;;;6250536;22;20015;-90
2023/11/03 23:02:51;;;;;;;25.25;13.30;;;;;;;;;;6277265;22;20045;-89
2023/11/03 23:05:17;;;;;;;9.88;5.50;;;;;;;;;;6225209;22;20000;-89
2023/11/03 23:07:43;;;;;;;5.55;3.67;;;;;;;;;;6250240;22;20038;-89
2023/11/03 23:10:11;;;;;;;9.55;5.85;;;;;;;;;;6277250;22;20006;-89
2023/11/03 23:12:46;;;;;;;8.68;5.93;;;;;;;;;;6279067;22;20023;-89
2023/11/03 23:15:12;;;;;;;40.45;23.25;;;;;;;;;;6252413;22;20027;-89
2023/11/03 23:17:37;;;;;;;16.58;11.35;;;;;;;;;;6252208;22;20312;-89
2023/11/03 23:20:09;;;;;;;7.00;5.25;;;;;;;;;;6252240;22;20086;-89
2023/11/03 23:22:36;;;;;;;3.63;2.80;;;;;;;;;;6252012;22;20004;-89
2023/11/03 23:25:01;;;;;;;22.95;13.52;;;;;;;;;;6252237;22;20057;-89
2023/11/03 23:27:27;;;;;;;12.50;7.18;;;;;;;;;;6251945;22;20004;-89
2023/11/03 23:29:52;;;;;;;32.03;20.33;;;;;;;;;;6251976;22;20035;-88
2023/11/03 23:32:18;;;;;;;20.13;11.50;;;;;;;;;;6279134;22;20000;-89
2023/11/03 23:34:43;;;;;;;11.05;6.97;;;;;;;;;;6252163;22;20050;-88
2023/11/03 23:37:09;;;;;;;9.43;5.80;;;;;;;;;;6279210;22;20000;-88
2023/11/03 23:39:35;;;;;;;16.42;9.02;;;;;;;;;;6252110;22;20012;-88
2023/11/03 23:42:00;;;;;;;7.57;4.95;;;;;;;;;;6252204;22;20007;-88
2023/11/03 23:44:26;;;;;;;5.47;3.85;;;;;;;;;;6251928;22;20004;-88
2023/11/03 23:46:52;;;;;;;7.80;5.57;;;;;;;;;;6252142;22;20007;-88
2023/11/03 23:49:18;;;;;;;6.22;4.40;;;;;;;;;;6279113;22;20074;-89
2023/11/03 23:51:44;;;;;;;3.97;2.90;;;;;;;;;;6251680;22;20004;-88
2023/11/03 23:54:10;;;;;;;39.20;21.90;;;;;;;;;;6225920;22;20035;-88
2023/11/03 23:56:35;;;;;;;19.45;12.25;;;;;;;;;;6251781;22;20423;-88
2023/11/03 23:59:01;;;;;;;69.80;39.60;;;;;;;;;;6279341;22;20011;-89
